Time;durP1;ratioP1;P1;durP2;ratioP2;P2;SDS_P1;SDS_P2;PMS_P1;PMS_P2;Temp;Humidity;BMP_temperature;BMP_pressure;BME280_temperature;BME280_humidity;BME280_pressure;Samples;Min_cycle;Max_cycle;Signal;HPM_P1;HPM_P2
2021/12/17 00:00:19;;;;;;;16.08;9.38;;;;;;;1.05;100.00;95145.50;5084627;28;20438;-77
2021/12/17 00:05:17;;;;;;;15.05;9.07;;;;;;;1.14;100.00;95148.34;5095979;28;20127;-78
2021/12/17 00:07:43;;;;;;;16.08;8.57;;;;;;;1.34;100.00;95153.00;5095728;28;20436;-78
2021/12/17 00:10:17;;;;;;;15.43;8.65;;;;;;;1.51;100.00;95153.81;5095563;28;20142;-77
2021/12/17 00:12:45;;;;;;;13.55;7.60;;;;;;;1.35;100.00;95151.84;5095841;28;20038;-78
2021/12/17 00:15:11;;;;;;;13.75;7.63;;;;;;;1.30;100.00;95139.69;5095462;28;20081;-78
2021/12/17 00:17:48;;;;;;;10.13;6.80;;;;;;;1.34;100.00;95155.66;5095387;28;20048;-77
2021/12/17 00:50:51;;;;;;;10.57;6.05;;;;;;;1.16;100.00;95143.38;5094694;28;20116;-78
2021/12/17 00:52:36;;;;;;;11.13;6.50;;;;;;;1.21;100.00;95141.38;5083707;28;20093;-78
2021/12/17 00:55:04;;;;;;;10.05;5.97;;;;;;;1.21;100.00;95146.72;5094726;28;20024;-78
2021/12/17 00:57:36;;;;;;;10.93;6.43;;;;;;;1.35;100.00;95147.22;5094915;28;20032;-78
2021/12/17 01:00:05;;;;;;;13.05;6.38;;;;;;;1.43;100.00;95147.88;5094649;28;20024;-78
2021/12/17 01:02:34;;;;;;;11.05;6.13;;;;;;;1.20;100.00;95139.88;5093298;28;20081;-78
2021/12/17 01:05:23;;;;;;;9.27;5.82;;;;;;;1.29;100.00;95145.44;5094225;28;20031;-78
2021/12/17 01:07:51;;;;;;;11.68;5.82;;;;;;;1.34;100.00;95155.66;5094220;28;20035;-78
2021/12/17 01:10:38;;;;;;;12.93;6.28;;;;;;;1.43;100.00;95131.03;5094394;28;20440;-77
2021/12/17 01:13:07;;;;;;;9.95;5.80;;;;;;;1.26;100.00;95138.25;5094279;28;20491;-78
2021/12/17 01:15:34;;;;;;;8.02;5.13;;;;;;;1.24;100.00;95135.97;5094285;28;20169;-79
2021/12/17 01:18:06;;;;;;;7.95;5.07;;;;;;;1.27;100.00;95129.03;5095015;28;20020;-78
2021/12/17 01:36:44;;;;;;;9.73;5.07;;;;;;;1.31;100.00;95111.00;5094051;28;20074;-78
2021/12/17 01:42:04;;;;;;;9.55;4.93;;;;;;;1.29;100.00;95091.94;5093730;28;20028;-78
2021/12/17 01:44:31;;;;;;;7.57;4.53;;;;;;;1.24;100.00;95103.13;5092847;28;20052;-78
2021/12/17 01:46:57;;;;;;;8.55;4.68;;;;;;;1.30;100.00;95090.78;5093706;28;20024;-78
2021/12/17 01:55:47;;;;;;;8.73;5.28;;;;;;;1.14;100.00;95088.78;5093874;28;20031;-78
2021/12/17 02:00:39;;;;;;;7.60;4.55;;;;;;;1.13;100.00;95088.03;5093680;28;20031;-78
2021/12/17 02:03:07;;;;;;;9.35;4.93;;;;;;;1.10;100.00;95094.19;5093530;28;20031;-77
2021/12/17 02:05:36;;;;;;;8.75;4.93;;;;;;;1.21;100.00;95098.59;5093434;28;20532;-77
2021/12/17 02:08:03;;;;;;;10.13;5.75;;;;;;;1.12;100.00;95107.19;5093287;28;20482;-78
2021/12/17 02:32:10;;;;;;;11.18;5.18;;;;;;;1.48;100.00;95091.19;5092591;28;20089;-78
2021/12/17 02:37:28;;;;;;;8.23;5.15;;;;;;;1.59;100.00;95087.53;5092757;28;20471;-77
2021/12/17 02:45:32;;;;;;;7.85;5.05;;;;;;;1.49;100.00;95092.69;5092345;28;20043;-77
2021/12/17 02:48:12;;;;;;;9.20;5.35;;;;;;;1.66;100.00;95084.72;5092591;28;20039;-78
2021/12/17 02:50:44;;;;;;;9.77;5.32;;;;;;;1.66;100.00;95084.72;5094192;28;20020;-78
2021/12/17 02:53:10;;;;;;;;;;;;;;;1.80;100.00;95086.34;5096785;28;20039;-79
2021/12/17 02:55:40;;;;;;;7.70;4.78;;;;;;;1.89;100.00;95097.22;5101618;28;20406;-77
2021/12/17 02:58:07;;;;;;;10.38;5.53;;;;;;;1.76;100.00;95094.47;5093963;28;20024;-78
2021/12/17 03:00:34;;;;;;;9.20;5.47;;;;;;;1.86;100.00;95088.09;5092204;28;20039;-78
2021/12/17 03:03:02;;;;;;;7.82;5.22;;;;;;;1.64;100.00;95084.38;5092427;28;20341;-78
2021/12/17 03:05:28;;;;;;;10.10;5.50;;;;;;;1.71;100.00;95088.84;5074417;28;20028;-78
2021/12/17 03:07:56;;;;;;;9.75;5.20;;;;;;;1.71;100.00;95081.56;5092206;28;20046;-78
2021/12/17 03:12:31;;;;;;;8.25;5.03;;;;;;;1.77;100.00;95089.84;5070589;27;20393;-78
2021/12/17 03:15:05;;;;;;;9.88;5.70;;;;;;;1.80;100.00;95092.47;5086316;28;20090;-77
2021/12/17 03:25:27;;;;;;;8.90;5.32;;;;;;;1.80;100.00;95083.66;5070496;28;20032;-76
2021/12/17 03:27:53;;;;;;;8.77;5.28;;;;;;;1.95;100.00;95073.41;5070045;28;20377;-77
2021/12/17 03:30:18;;;;;;;11.38;5.53;;;;;;;1.75;100.00;95082.22;5070496;28;20484;-77
2021/12/17 03:32:44;;;;;;;9.48;5.75;;;;;;;1.74;100.00;95086.06;5070043;28;20099;-77
2021/12/17 03:35:09;;;;;;;9.20;5.50;;;;;;;1.67;100.00;95083.56;5069995;28;20029;-77
2021/12/17 03:37:35;;;;;;;11.48;6.57;;;;;;;1.67;100.00;95075.53;5086052;28;20021;-77
2021/12/17 03:40:00;;;;;;;9.27;5.45;;;;;;;1.51;100.00;95090.38;5069899;28;20056;-77
2021/12/17 03:42:26;;;;;;;10.90;6.57;;;;;;;1.48;100.00;95074.38;5069961;28;20020;-78
2021/12/17 03:44:51;;;;;;;10.02;6.80;;;;;;;1.43;100.00;95067.59;5070067;28;20099;-77
2021/12/17 03:47:17;;;;;;;11.07;6.20;;;;;;;1.56;100.00;95073.06;5069730;28;20449;-77
2021/12/17 03:49:43;;;;;;;10.98;6.50;;;;;;;1.55;100.00;95068.13;5070162;28;20027;-77
2021/12/17 03:52:08;;;;;;;11.35;6.97;;;;;;;1.70;100.00;95072.00;5069555;28;20206;-77
2021/12/17 03:54:36;;;;;;;10.80;6.20;;;;;;;1.67;100.00;95070.91;5069735;28;20025;-77
2021/12/17 03:57:05;;;;;;;12.02;6.40;;;;;;;1.55;100.00;95058.19;5069682;28;20020;-77
2021/12/17 03:59:30;;;;;;;10.52;6.50;;;;;;;1.58;100.00;95056.59;5069349;28;20020;-77
2021/12/17 04:01:56;;;;;;;11.38;6.63;;;;;;;1.69;100.00;95057.13;5085394;28;20105;-77
2021/12/17 04:04:22;;;;;;;10.80;6.07;;;;;;;1.66;100.00;95053.38;5085220;28;20108;-77
2021/12/17 04:06:47;;;;;;;11.20;6.47;;;;;;;1.69;100.00;95049.09;5069322;28;20103;-77
2021/12/17 04:09:13;;;;;;;9.88;5.90;;;;;;;1.61;100.00;95045.06;5085419;28;20084;-77
2021/12/17 04:11:39;;;;;;;7.38;5.28;;;;;;;1.82;100.00;95049.22;5069040;28;20052;-78
2021/12/17 04:14:04;;;;;;;8.02;5.50;;;;;;;1.61;100.00;95045.06;5069103;28;20056;-78
2021/12/17 04:16:32;;;;;;;8.68;5.63;;;;;;;1.63;100.00;95027.44;5069390;28;20400;-77
2021/12/17 04:18:59;;;;;;;8.23;5.28;;;;;;;1.62;100.00;95025.94;5069618;28;20024;-77
2021/12/17 04:21:25;;;;;;;8.05;4.63;;;;;;;1.58;100.00;95024.50;5069407;28;20029;-77
2021/12/17 04:23:54;;;;;;;7.32;4.95;;;;;;;1.66;100.00;95017.81;5055188;28;20025;-77
2021/12/17 04:26:21;;;;;;;8.75;4.93;;;;;;;1.66;100.00;95015.13;5055276;28;20020;-77
2021/12/17 04:28:50;;;;;;;6.65;4.65;;;;;;;1.75;100.00;95015.31;5056192;28;20092;-76
2021/12/17 04:31:19;;;;;;;6.07;4.03;;;;;;;1.58;100.00;94997.72;5056112;28;20477;-76
2021/12/17 04:33:44;;;;;;;6.55;4.32;;;;;;;1.66;100.00;94993.72;5055601;28;20029;-77
2021/12/17 04:36:15;;;;;;;6.15;4.22;;;;;;;1.67;100.00;94995.97;5055521;28;20095;-77
2021/12/17 04:38:40;;;;;;;6.25;4.15;;;;;;;1.71;100.00;94990.56;5055814;28;20432;-76
2021/12/17 04:44:11;;;;;;;6.90;4.30;;;;;;;1.64;100.00;94985.38;5055770;28;20398;-77
2021/12/17 04:57:40;;;;;;;4.68;2.88;;;;;;;1.99;100.00;94975.78;5055981;28;20032;-76
2021/12/17 05:00:13;;;;;;;5.00;3.00;;;;;;;1.89;100.00;94974.09;5055652;28;20170;-77
2021/12/17 05:02:44;;;;;;;5.20;3.15;;;;;;;1.88;100.00;94966.47;5055571;28;20100;-77
2021/12/17 05:05:11;;;;;;;4.97;3.38;;;;;;;1.69;100.00;94972.25;5056225;28;20064;-75
2021/12/17 05:07:41;;;;;;;3.45;2.40;;;;;;;1.68;100.00;94981.44;5057493;28;20020;-75
2021/12/17 05:10:21;;;;;;;4.15;2.88;;;;;;;1.79;100.00;94978.53;5058048;28;20335;-75
2021/12/17 05:20:50;;;;;;;2.50;1.90;;;;;;;1.97;100.00;94980.03;5057648;28;20021;-77
2021/12/17 05:23:22;;;;;;;2.58;1.67;;;;;;;1.92;100.00;94969.81;5074232;28;20151;-76
2021/12/17 05:25:47;;;;;;;;;;;;;;;1.86;100.00;94964.22;5057603;28;20025;-78
2021/12/17 05:28:13;;;;;;;3.60;1.58;;;;;;;1.89;100.00;94984.78;5056779;28;19912;-76
2021/12/17 05:30:45;;;;;;;3.92;2.30;;;;;;;2.04;100.00;94995.94;5057371;28;20025;-75
2021/12/17 05:33:10;;;;;;;;;;;;;;;1.90;100.00;94985.56;5057352;28;20453;-76
2021/12/17 05:35:35;;;;;;;4.50;2.60;;;;;;;1.97;100.00;94991.50;5056629;28;19914;-75
2021/12/17 05:38:01;;;;;;;4.38;2.80;;;;;;;1.96;100.00;94987.31;5059546;28;20113;-75
2021/12/17 05:40:26;;;;;;;3.30;2.78;;;;;;;1.96;100.00;94981.19;5057064;28;20028;-78
2021/12/17 05:42:55;;;;;;;5.13;2.92;;;;;;;1.90;100.00;94969.50;5055046;28;20057;-77
2021/12/17 05:48:09;;;;;;;4.50;3.42;;;;;;;1.91;100.00;94971.00;5054801;28;20122;-77
2021/12/17 05:50:37;;;;;;;4.97;3.17;;;;;;;1.94;100.00;94976.28;5059996;28;20113;-77
2021/12/17 05:53:04;;;;;;;7.32;3.42;;;;;;;1.81;100.00;94954.78;5064127;28;20036;-76
2021/12/17 05:55:29;;;;;;;6.43;3.70;;;;;;;1.88;100.00;94971.84;5055435;28;20025;-78
2021/12/17 05:57:55;;;;;;;7.22;3.72;;;;;;;1.81;100.00;94972.75;5071150;28;20469;-78
2021/12/17 06:00:22;;;;;;;5.30;3.05;;;;;;;2.08;100.00;94980.53;5070079;28;20031;-77
2021/12/17 06:02:49;;;;;;;5.15;2.70;;;;;;;1.93;100.00;94987.41;5068648;28;20043;-77
2021/12/17 06:05:15;;;;;;;3.67;2.17;;;;;;;1.98;100.00;94993.00;5068519;28;20039;-77
2021/12/17 06:07:40;;;;;;;6.60;2.83;;;;;;;2.07;100.00;95005.78;5067135;28;20033;-77
2021/12/17 06:10:08;;;;;;;5.22;2.65;;;;;;;1.96;100.00;94989.22;5069287;28;20039;-78
2021/12/17 06:12:35;;;;;;;7.00;3.58;;;;;;;2.09;100.00;95008.81;5055788;28;20525;-77
2021/12/17 06:15:02;;;;;;;4.57;2.42;;;;;;;1.91;100.00;95003.13;5053671;28;20040;-77
2021/12/17 06:17:27;;;;;;;5.55;2.30;;;;;;;1.96;100.00;95010.66;5053642;28;20055;-78
2021/12/17 06:19:53;;;;;;;6.35;2.83;;;;;;;2.07;100.00;95013.81;5053620;28;20139;-77
2021/12/17 06:22:18;;;;;;;5.93;2.92;;;;;;;2.17;100.00;95020.13;5052515;28;20013;-77
2021/12/17 06:24:45;;;;;;;5.05;2.95;;;;;;;2.12;100.00;95018.69;5053616;28;20096;-77
2021/12/17 06:27:16;;;;;;;5.78;2.80;;;;;;;2.02;100.00;95025.81;5053546;28;20047;-77
2021/12/17 06:29:42;;;;;;;6.75;3.17;;;;;;;2.13;100.00;95014.84;5053237;28;20033;-78
2021/12/17 06:32:08;;;;;;;4.38;2.47;;;;;;;1.96;100.00;95005.31;5053370;28;20052;-78
2021/12/17 06:34:34;;;;;;;4.80;2.50;;;;;;;2.01;100.00;95008.22;5053660;28;20029;-82
2021/12/17 06:37:00;;;;;;;3.97;2.42;;;;;;;1.94;100.00;95013.00;5053344;28;20051;-76
2021/12/17 06:39:26;;;;;;;5.75;3.05;;;;;;;2.02;100.00;95007.06;5053194;28;20470;-75
2021/12/17 06:41:51;;;;;;;6.20;3.20;;;;;;;1.92;100.00;95002.69;5053070;28;20100;-75
2021/12/17 06:44:22;;;;;;;5.03;3.13;;;;;;;2.08;100.00;95004.63;5053144;28;20020;-77
2021/12/17 07:09:09;;;;;;;8.40;3.73;;;;;;;1.76;100.00;95016.84;5052781;28;20001;-76
2021/12/17 07:11:01;;;;;;;6.38;3.90;;;;;;;1.90;100.00;95005.06;5052284;28;20048;-75
2021/12/17 07:39:44;;;;;;;12.77;7.30;;;;;;;1.84;100.00;94994.09;5052703;28;20025;-75
2021/12/17 07:42:09;;;;;;;9.80;6.25;;;;;;;1.89;100.00;94984.06;5052549;28;20381;-75
2021/12/17 07:44:35;;;;;;;10.88;5.95;;;;;;;1.72;100.00;94989.41;5051711;28;20112;-77
2021/12/17 07:47:01;;;;;;;8.55;5.85;;;;;;;1.77;100.00;94994.25;5052948;28;20100;-78
2021/12/17 07:49:27;;;;;;;7.63;5.65;;;;;;;1.60;100.00;95000.75;5052311;28;20484;-76
2021/12/17 07:51:53;;;;;;;9.30;6.15;;;;;;;1.70;100.00;95005.09;5052512;28;20102;-77
2021/12/17 07:54:18;;;;;;;9.68;5.63;;;;;;;1.72;100.00;95010.03;5052114;28;20067;-77
2021/12/17 07:56:45;;;;;;;7.47;4.93;;;;;;;1.71;100.00;95000.53;5052231;28;20090;-77
2021/12/17 07:59:12;;;;;;;9.07;5.60;;;;;;;1.74;100.00;95005.03;5056047;28;20024;-77
2021/12/17 08:01:38;;;;;;;7.40;4.88;;;;;;;1.73;100.00;95008.88;5055985;28;20025;-76
2021/12/17 08:04:05;;;;;;;10.23;5.85;;;;;;;1.90;100.00;95012.34;5056097;28;20025;-76
2021/12/17 08:06:32;;;;;;;10.23;6.75;;;;;;;1.82;100.00;95009.81;5056357;28;20457;-77
2021/12/17 08:08:58;;;;;;;9.32;6.07;;;;;;;1.88;100.00;95006.63;5055758;28;20037;-77
2021/12/17 08:11:24;;;;;;;11.38;7.15;;;;;;;2.12;100.00;95017.94;5055558;28;20084;-77
2021/12/17 08:13:51;;;;;;;9.60;6.10;;;;;;;1.95;100.00;95030.56;5071376;28;20056;-77
2021/12/17 08:32:00;;;;;;;7.65;5.20;;;;;;;2.00;100.00;94989.91;5055880;28;20040;-78
2021/12/17 08:34:25;;;;;;;9.82;5.30;;;;;;;1.91;100.00;94992.41;5055878;28;20036;-77
2021/12/17 08:36:51;;;;;;;8.05;5.05;;;;;;;2.10;100.00;94990.81;5055492;28;20158;-77
2021/12/17 08:39:18;;;;;;;8.43;5.35;;;;;;;2.20;100.00;94985.22;5055374;28;20493;-77
2021/12/17 08:41:44;;;;;;;7.05;4.88;;;;;;;2.23;100.00;94988.97;5055510;28;20520;-78
2021/12/17 08:44:10;;;;;;;5.03;4.10;;;;;;;2.09;100.00;94990.06;5055773;28;20025;-77
2021/12/17 08:46:36;;;;;;;6.68;4.72;;;;;;;2.12;100.00;94983.13;5055830;28;20090;-77
2021/12/17 08:49:05;;;;;;;6.28;4.68;;;;;;;2.34;100.00;94986.03;5059835;28;20024;-77
2021/12/17 08:51:31;;;;;;;7.82;4.57;;;;;;;2.36;100.00;94979.09;5074635;28;20104;-77
2021/12/17 08:53:57;;;;;;;5.95;3.90;;;;;;;2.31;100.00;94966.19;5056351;28;20036;-77
2021/12/17 08:56:27;;;;;;;6.28;4.13;;;;;;;2.42;100.00;94973.22;5054975;28;20017;-77
2021/12/17 08:58:53;;;;;;;8.13;4.95;;;;;;;2.45;100.00;94975.03;5055512;28;20081;-77
2021/12/17 09:01:20;;;;;;;6.55;4.57;;;;;;;2.37;100.00;94971.78;5055457;28;20053;-77
2021/12/17 09:03:47;;;;;;;6.75;4.57;;;;;;;2.53;100.00;94974.44;5055472;28;20040;-78
2021/12/17 09:06:15;;;;;;;8.43;4.97;;;;;;;2.51;100.00;94974.13;5055625;28;20044;-77
2021/12/17 09:08:40;;;;;;;7.70;5.10;;;;;;;2.52;100.00;94969.50;5070725;28;20032;-77
2021/12/17 09:11:06;;;;;;;7.18;5.38;;;;;;;2.54;100.00;94961.81;5054586;28;20414;-77
2021/12/17 09:13:31;;;;;;;11.77;5.95;;;;;;;2.63;100.00;94956.59;5055415;28;20020;-77
2021/12/17 09:15:59;;;;;;;10.25;6.55;;;;;;;2.68;100.00;94976.75;5054754;28;20370;-77
2021/12/17 09:18:25;;;;;;;9.85;6.22;;;;;;;2.61;100.00;94955.50;5055355;28;20342;-77
2021/12/17 09:20:52;;;;;;;11.18;7.03;;;;;;;2.71;100.00;94957.13;5054740;28;20446;-77
2021/12/17 09:23:19;;;;;;;10.98;6.93;;;;;;;2.65;100.00;94946.19;5054696;28;20104;-77
2021/12/17 09:25:45;;;;;;;10.25;6.53;;;;;;;2.40;100.00;94949.53;5054627;28;20024;-77
2021/12/17 09:28:10;;;;;;;9.35;6.00;;;;;;;2.40;100.00;94954.91;5054763;28;20094;-77
2021/12/17 09:30:37;;;;;;;12.30;6.43;;;;;;;2.54;100.00;94951.09;5054534;28;20029;-78
2021/12/17 09:33:03;;;;;;;8.93;5.85;;;;;;;2.60;100.00;94951.31;5054065;28;20365;-78
2021/12/17 09:35:28;;;;;;;7.80;5.82;;;;;;;2.50;100.00;94955.78;5054456;28;20025;-78
2021/12/17 09:37:54;;;;;;;12.25;6.85;;;;;;;2.57;100.00;94944.13;5054845;28;20024;-79
2021/12/17 09:40:20;;;;;;;10.75;6.20;;;;;;;2.51;100.00;94936.59;5054403;28;20090;-78
2021/12/17 09:42:47;;;;;;;8.60;5.75;;;;;;;2.50;100.00;94935.09;5054556;28;20086;-78
2021/12/17 09:45:15;;;;;;;9.27;6.22;;;;;;;2.45;100.00;94922.19;5054536;28;20436;-78
2021/12/17 09:47:42;;;;;;;8.35;6.15;;;;;;;2.38;100.00;94927.75;5054154;28;20024;-78
2021/12/17 09:50:09;;;;;;;11.27;7.13;;;;;;;2.41;100.00;94913.50;5053989;28;20398;-77
2021/12/17 09:52:35;;;;;;;11.90;7.88;;;;;;;2.47;100.00;94914.50;5069589;28;20068;-78
2021/12/17 09:55:03;;;;;;;9.95;6.55;;;;;;;2.40;100.00;94922.75;5055078;28;20029;-78
2021/12/17 09:57:35;;;;;;;10.00;7.30;;;;;;;2.35;100.00;94907.19;5054436;28;20036;-77
2021/12/17 10:00:01;;;;;;;10.35;7.07;;;;;;;2.37;100.00;94902.13;5054481;28;20025;-77
2021/12/17 10:02:26;;;;;;;9.95;7.47;;;;;;;2.46;100.00;94901.53;5053957;28;20166;-79
2021/12/17 10:04:55;;;;;;;10.65;6.95;;;;;;;2.42;100.00;94898.19;5053931;28;20024;-79
2021/12/17 10:07:22;;;;;;;10.88;8.15;;;;;;;2.48;100.00;94905.31;5054362;28;20584;-78
2021/12/17 10:09:56;;;;;;;9.43;7.35;;;;;;;2.65;100.00;94887.22;5053682;28;20020;-78
2021/12/17 10:12:33;;;;;;;10.25;7.78;;;;;;;2.56;100.00;94879.03;5069295;28;20039;-78
2021/12/17 10:15:05;;;;;;;10.55;7.30;;;;;;;2.72;100.00;94878.22;5053760;28;20063;-78
2021/12/17 10:17:31;;;;;;;9.82;6.45;;;;;;;2.80;100.00;94866.13;5053747;28;20025;-79
2021/12/17 10:19:57;;;;;;;8.13;5.78;;;;;;;2.88;100.00;94856.69;5053255;28;20336;-78
2021/12/17 10:22:23;;;;;;;9.45;6.32;;;;;;;2.98;100.00;94862.19;5053371;28;20025;-78
2021/12/17 10:25:09;;;;;;;8.77;6.00;;;;;;;3.29;100.00;94846.31;5053305;28;20104;-78
2021/12/17 10:27:40;;;;;;;8.27;5.60;;;;;;;3.25;100.00;94840.31;5053723;28;20036;-78
2021/12/17 10:30:16;;;;;;;9.52;5.80;;;;;;;3.10;100.00;94839.25;5053180;28;20025;-79
2021/12/17 10:32:50;;;;;;;9.60;6.38;;;;;;;3.17;100.00;94830.97;5069169;28;20040;-76
2021/12/17 10:35:18;;;;;;;19.73;12.85;;;;;;;3.34;100.00;94836.94;5053649;28;20029;-79
2021/12/17 10:37:49;;;;;;;16.77;9.98;;;;;;;4.48;100.00;94841.66;5052887;28;20037;-66
2021/12/17 10:40:15;;;;;;;6.43;3.80;;;;;;;3.62;100.00;94829.19;5053094;28;20021;-66
2021/12/17 10:42:48;;;;;;;10.02;4.30;;;;;;;4.13;100.00;94818.31;5052919;28;20355;-66
2021/12/17 10:45:23;;;;;;;6.00;4.32;;;;;;;3.78;100.00;94810.25;5053276;28;20033;-82
2021/12/17 10:51:01;;;;;;;6.97;4.30;;;;;;;3.48;100.00;94792.84;5054614;28;20485;-83
2021/12/17 10:53:27;;;;;;;5.30;4.10;;;;;;;3.39;100.00;94801.53;5053047;28;20486;-81
2021/12/17 10:55:54;;;;;;;6.22;4.20;;;;;;;3.16;100.00;94781.94;5052993;28;20264;-82
2021/12/17 10:58:21;;;;;;;6.32;4.90;;;;;;;2.97;100.00;94801.69;5052995;28;20113;-81
2021/12/17 11:00:58;;;;;;;8.73;4.70;;;;;;;2.99;100.00;94818.84;5053131;28;20378;-81
2021/12/17 11:03:24;;;;;;;6.88;5.18;;;;;;;2.91;100.00;94814.13;5053498;28;20029;-81
2021/12/17 11:05:50;;;;;;;6.95;5.32;;;;;;;2.93;100.00;94811.75;5052068;28;20199;-80
2021/12/17 11:08:30;;;;;;;6.60;4.78;;;;;;;2.94;100.00;94810.59;5051933;28;20088;-82
2021/12/17 11:11:06;;;;;;;9.90;6.00;;;;;;;2.97;100.00;94810.50;5053151;28;20399;-82
2021/12/17 11:13:32;;;;;;;7.35;5.38;;;;;;;3.00;100.00;94801.59;5053433;28;20489;-82
2021/12/17 11:15:58;;;;;;;7.78;5.45;;;;;;;2.91;100.00;94792.69;5068981;28;20029;-80
2021/12/17 11:18:27;;;;;;;7.97;6.30;;;;;;;3.02;100.00;94795.78;5068935;28;20029;-81
2021/12/17 11:20:55;;;;;;;9.00;5.80;;;;;;;2.97;100.00;94788.28;5068748;28;20029;-83
2021/12/17 11:23:22;;;;;;;6.25;4.93;;;;;;;2.90;100.00;94791.19;5053219;28;20036;-82
2021/12/17 11:25:50;;;;;;;11.27;8.88;;;;;;;2.73;100.00;94785.94;5053290;28;20029;-82
2021/12/17 11:28:16;;;;;;;37.95;24.55;;;;;;;3.43;100.00;94786.06;5069482;28;20457;-84
2021/12/17 11:30:44;;;;;;;11.93;8.52;;;;;;;3.31;100.00;94771.53;5053675;28;20040;-82
2021/12/17 11:33:11;;;;;;;8.88;5.72;;;;;;;2.79;100.00;94768.13;5055342;28;20032;-82
2021/12/17 11:35:39;;;;;;;8.45;6.13;;;;;;;2.83;100.00;94768.75;5057584;28;20580;-82
2021/12/17 11:38:10;;;;;;;8.13;5.75;;;;;;;2.84;100.00;94756.84;5057599;28;20112;-80
2021/12/17 11:40:48;;;;;;;10.25;5.53;;;;;;;2.70;100.00;94770.72;5058187;28;20115;-80
2021/12/17 11:43:50;;;;;;;6.95;5.80;;;;;;;2.70;100.00;94770.72;5062389;28;20033;-81
2021/12/17 11:46:17;;;;;;;9.23;6.32;;;;;;;2.62;100.00;94753.31;5079821;28;20017;-81
2021/12/17 11:49:23;;;;;;;9.40;6.47;;;;;;;2.64;100.00;94745.59;5070447;28;20090;-83
2021/12/17 11:51:55;;;;;;;6.45;4.85;;;;;;;2.68;100.00;94743.56;5049521;28;20048;-84
2021/12/17 11:54:29;;;;;;;6.97;5.30;;;;;;;2.77;100.00;94741.00;5072369;28;20114;-82
2021/12/17 11:57:05;;;;;;;9.07;6.00;;;;;;;2.72;100.00;94736.16;5056944;28;20020;-81
2021/12/17 11:59:33;;;;;;;7.28;4.88;;;;;;;2.56;100.00;94736.28;5072310;28;20107;-81
2021/12/17 12:02:16;;;;;;;5.25;4.25;;;;;;;2.49;100.00;94729.94;5056876;28;20021;-81
2021/12/17 12:04:56;;;;;;;5.18;3.33;;;;;;;2.39;100.00;94725.66;5056903;28;20036;-82
2021/12/17 12:07:24;;;;;;;4.78;3.58;;;;;;;2.38;100.00;94734.13;5055275;28;20029;-82
2021/12/17 12:10:05;;;;;;;5.95;4.45;;;;;;;2.39;100.00;94738.28;5056435;28;20029;-82
2021/12/17 12:12:30;;;;;;;6.93;4.95;;;;;;;2.56;100.00;94733.59;5072842;28;20044;-83
2021/12/17 12:15:19;;;;;;;6.15;4.72;;;;;;;2.40;100.00;94727.16;5056202;28;20029;-83
2021/12/17 12:17:57;;;;;;;5.80;4.28;;;;;;;2.30;100.00;94730.91;5056122;28;20121;-82
2021/12/17 12:20:43;;;;;;;5.68;3.80;;;;;;;2.40;100.00;94721.03;5056041;28;20398;-81
2021/12/17 12:23:31;;;;;;;5.90;3.80;;;;;;;2.31;100.00;94692.22;5052239;28;20075;-84
2021/12/17 12:26:07;;;;;;;16.95;10.10;;;;;;;2.53;100.00;94711.81;5056692;28;20028;-84
2021/12/17 12:28:45;;;;;;;6.88;4.85;;;;;;;2.47;100.00;94702.84;5056813;28;20035;-84
2021/12/17 12:31:17;;;;;;;6.05;4.13;;;;;;;2.36;100.00;94705.84;5056226;28;20098;-84
2021/12/17 12:34:00;;;;;;;;;;;;;;;2.34;100.00;94686.00;5056815;28;20033;-79
2021/12/17 12:37:00;;;;;;;6.80;4.82;;;;;;;2.38;100.00;94675.94;5055591;28;19920;-80
2021/12/17 12:39:32;;;;;;;5.78;4.15;;;;;;;2.23;100.00;94666.84;5055620;28;20443;-80
2021/12/17 12:41:58;;;;;;;6.22;3.58;;;;;;;2.26;100.00;94674.00;5071542;28;20036;-79
2021/12/17 12:44:41;;;;;;;7.00;4.78;;;;;;;2.30;100.00;94663.94;5056501;28;20036;-83
2021/12/17 12:47:13;;;;;;;6.30;4.47;;;;;;;2.26;100.00;94684.72;5056022;28;20033;-82
2021/12/17 12:49:58;;;;;;;6.57;4.10;;;;;;;2.18;100.00;94674.22;5056448;28;20050;-80
2021/12/17 12:52:39;;;;;;;7.18;3.58;;;;;;;2.22;100.00;94670.69;5055887;28;20106;-82
2021/12/17 12:55:12;;;;;;;5.20;3.47;;;;;;;2.16;100.00;94675.81;5056122;28;20025;-82
2021/12/17 12:57:40;;;;;;;6.65;3.50;;;;;;;2.31;100.00;94670.78;5056511;28;20078;-80
2021/12/17 13:00:34;;;;;;;5.93;2.90;;;;;;;2.28;100.00;94674.34;5071358;28;20425;-81
2021/12/17 13:03:28;;;;;;;3.67;2.72;;;;;;;2.31;100.00;94676.91;5054871;28;20037;-82
2021/12/17 13:05:54;;;;;;;4.40;3.05;;;;;;;2.33;100.00;94657.72;5054622;28;20040;-81
2021/12/17 13:08:22;;;;;;;3.35;2.67;;;;;;;2.32;100.00;94653.56;5055780;28;20422;-85
2021/12/17 13:10:54;;;;;;;6.05;2.83;;;;;;;2.34;100.00;94678.72;5056845;28;20452;-88
2021/12/17 13:13:31;;;;;;;3.67;2.75;;;;;;;2.35;100.00;94672.19;5057787;28;20041;-83
2021/12/17 13:16:11;;;;;;;5.05;3.20;;;;;;;2.38;100.00;94692.00;5072877;28;20025;-86
2021/12/17 13:24:14;;;;;;;3.75;2.42;;;;;;;2.40;100.00;94688.91;5058479;28;20103;-88
2021/12/17 13:26:50;;;;;;;6.45;3.33;;;;;;;2.43;100.00;94699.50;5056605;28;20083;-82
2021/12/17 13:29:20;;;;;;;4.78;3.15;;;;;;;2.38;100.00;94692.00;5055526;28;20466;-82
2021/12/17 13:32:01;;;;;;;5.78;3.40;;;;;;;2.49;100.00;94686.31;5055714;28;20454;-83
2021/12/17 13:34:40;;;;;;;5.28;3.30;;;;;;;2.36;100.00;94683.66;5055445;28;20408;-82
2021/12/17 13:37:10;;;;;;;6.32;3.47;;;;;;;2.34;100.00;94696.72;5054941;28;20036;-82
2021/12/17 13:39:41;;;;;;;4.57;2.88;;;;;;;2.22;100.00;94700.13;5055322;28;20048;-83
2021/12/17 13:42:09;;;;;;;4.10;2.85;;;;;;;2.18;100.00;94679.56;5071103;28;20029;-84
2021/12/17 13:44:41;;;;;;;6.13;3.80;;;;;;;2.28;100.00;94677.75;5055566;28;20434;-84
2021/12/17 13:47:10;;;;;;;5.32;3.58;;;;;;;2.28;100.00;94695.75;5071924;28;20102;-84
2021/12/17 13:49:36;;;;;;;5.75;3.80;;;;;;;2.23;100.00;94680.22;5057040;28;20028;-85
2021/12/17 13:52:04;;;;;;;6.47;3.47;;;;;;;2.22;100.00;94670.69;5055035;28;20108;-86
2021/12/17 13:54:30;;;;;;;5.00;3.47;;;;;;;2.23;100.00;94680.22;5056742;28;20048;-88
2021/12/17 13:57:02;;;;;;;5.43;3.22;;;;;;;2.29;100.00;94675.81;5057748;28;20100;-85
2021/12/17 13:59:35;;;;;;;6.47;3.63;;;;;;;2.31;100.00;94686.88;5058045;28;20033;-87
2021/12/17 14:02:12;;;;;;;6.32;4.03;;;;;;;2.35;100.00;94687.50;5056887;28;20089;-86
2021/12/17 14:04:40;;;;;;;4.50;3.10;;;;;;;2.28;100.00;94672.41;5056577;28;20033;-84
2021/12/17 14:07:10;;;;;;;4.97;3.40;;;;;;;2.31;100.00;94649.38;5055540;28;20090;-85
2021/12/17 14:09:37;;;;;;;4.22;2.85;;;;;;;2.32;100.00;94656.22;5055683;28;20107;-87
2021/12/17 14:12:33;;;;;;;4.25;2.85;;;;;;;2.26;100.00;94661.34;5058233;28;20051;-87
2021/12/17 14:15:02;;;;;;;4.65;3.15;;;;;;;2.27;100.00;94656.75;5058527;28;20103;-88
2021/12/17 14:17:38;;;;;;;7.05;3.85;;;;;;;2.43;100.00;94672.72;5061228;28;20045;-88
2021/12/17 14:20:16;;;;;;;11.70;7.85;;;;;;;2.56;100.00;94683.44;5043691;28;20072;-88
2021/12/17 14:22:45;;;;;;;11.43;7.80;;;;;;;2.60;100.00;94692.09;5057310;28;20021;-87
2021/12/17 14:26:04;;;;;;;3.95;3.00;;;;;;;2.25;100.00;94683.22;5055651;28;20116;-85
2021/12/17 14:28:37;;;;;;;7.07;3.75;;;;;;;2.24;100.00;94689.75;5021916;28;20055;-88
2021/12/17 14:31:18;;;;;;;6.45;3.80;;;;;;;2.08;100.00;94691.34;5060493;28;20032;-88
2021/12/17 14:33:48;;;;;;;7.78;3.67;;;;;;;2.18;100.00;94695.66;5074841;28;20478;-82
2021/12/17 14:36:25;;;;;;;5.80;3.25;;;;;;;2.16;100.00;94684.59;5071651;28;20119;-82
2021/12/17 14:38:55;;;;;;;4.70;3.53;;;;;;;2.07;100.00;94692.50;5071371;28;20044;-83
2021/12/17 14:41:30;;;;;;;7.30;4.40;;;;;;;1.98;100.00;94681.69;5073649;28;20025;-83
2021/12/17 14:44:05;;;;;;;6.30;3.70;;;;;;;1.98;100.00;94682.44;5070838;28;20021;-84
2021/12/17 14:46:56;;;;;;;6.55;3.88;;;;;;;2.00;100.00;94690.03;5073277;28;20040;-83
2021/12/17 15:05:03;;;;;;;5.55;4.00;;;;;;;1.60;100.00;94714.47;5055520;28;20366;-85
2021/12/17 15:07:28;;;;;;;7.30;4.03;;;;;;;1.50;100.00;94711.63;5063642;28;20039;-83
2021/12/17 15:09:54;;;;;;;5.45;4.18;;;;;;;1.47;100.00;94720.50;5061283;28;20405;-85
2021/12/17 15:14:51;;;;;;;5.80;4.22;;;;;;;1.49;100.00;94707.44;5055012;28;20036;-85
2021/12/17 15:17:17;;;;;;;7.20;4.60;;;;;;;1.39;100.00;94713.84;5054598;28;20036;-81
2021/12/17 15:19:43;;;;;;;7.43;4.55;;;;;;;1.38;100.00;94723.03;5055287;28;20354;-83